sensor_id;sensor_type;location;lat;lon;timestamp;P1;durP1;ratioP1;P2;durP2;ratioP2
18879;SDS011;9572;52.378;13.404;2023-03-09T00:00:05;16.07;;;9.00;;
18879;SDS011;9572;52.378;13.404;2023-03-09T00:02:36;20.30;;;10.87;;
18879;SDS011;9572;52.378;13.404;2023-03-09T00:05:03;22.33;;;10.50;;
18879;SDS011;9572;52.378;13.404;2023-03-09T00:07:31;17.60;;;9.67;;
18879;SDS011;9572;52.378;13.404;2023-03-09T00:09:58;16.27;;;8.70;;
18879;SDS011;9572;52.378;13.404;2023-03-09T00:12:25;19.07;;;10.50;;
18879;SDS011;9572;52.378;13.404;2023-03-09T00:14:53;18.43;;;9.87;;
18879;SDS011;9572;52.378;13.404;2023-03-09T00:17:20;20.63;;;9.67;;
18879;SDS011;9572;52.378;13.404;2023-03-09T00:19:47;16.77;;;9.37;;
18879;SDS011;9572;52.378;13.404;2023-03-09T00:22:14;19.90;;;10.33;;
18879;SDS011;9572;52.378;13.404;2023-03-09T00:24:42;21.10;;;10.70;;
18879;SDS011;9572;52.378;13.404;2023-03-09T00:27:12;20.57;;;10.27;;
18879;SDS011;9572;52.378;13.404;2023-03-09T00:29:39;19.83;;;11.37;;
18879;SDS011;9572;52.378;13.404;2023-03-09T00:32:08;19.63;;;11.03;;
18879;SDS011;9572;52.378;13.404;2023-03-09T00:34:35;19.50;;;10.80;;
18879;SDS011;9572;52.378;13.404;2023-03-09T00:37:02;22.50;;;10.87;;
18879;SDS011;9572;52.378;13.404;2023-03-09T00:39:29;22.03;;;10.90;;
18879;SDS011;9572;52.378;13.404;2023-03-09T00:41:56;19.40;;;10.87;;
18879;SDS011;9572;52.378;13.404;2023-03-09T00:44:22;19.10;;;10.80;;
18879;SDS011;9572;52.378;13.404;2023-03-09T00:46:49;22.07;;;11.20;;
18879;SDS011;9572;52.378;13.404;2023-03-09T00:49:18;19.37;;;10.77;;
18879;SDS011;9572;52.378;13.404;2023-03-09T00:51:44;18.43;;;10.97;;
18879;SDS011;9572;52.378;13.404;2023-03-09T00:54:12;20.77;;;10.77;;
18879;SDS011;9572;52.378;13.404;2023-03-09T00:56:40;20.33;;;10.77;;
18879;SDS011;9572;52.378;13.404;2023-03-09T00:59:07;22.73;;;11.13;;
18879;SDS011;9572;52.378;13.404;2023-03-09T01:01:35;22.00;;;11.40;;
18879;SDS011;9572;52.378;13.404;2023-03-09T01:04:02;21.27;;;11.03;;
18879;SDS011;9572;52.378;13.404;2023-03-09T01:06:30;20.17;;;10.73;;
18879;SDS011;9572;52.378;13.404;2023-03-09T01:08:57;20.57;;;11.40;;
18879;SDS011;9572;52.378;13.404;2023-03-09T01:11:24;25.60;;;11.43;;
18879;SDS011;9572;52.378;13.404;2023-03-09T01:13:51;20.93;;;11.00;;
18879;SDS011;9572;52.378;13.404;2023-03-09T01:16:19;24.70;;;12.37;;
18879;SDS011;9572;52.378;13.404;2023-03-09T01:18:46;23.43;;;11.27;;
18879;SDS011;9572;52.378;13.404;2023-03-09T01:21:13;24.53;;;12.03;;
18879;SDS011;9572;52.378;13.404;2023-03-09T01:23:41;22.07;;;11.40;;
18879;SDS011;9572;52.378;13.404;2023-03-09T01:26:08;20.83;;;11.87;;
18879;SDS011;9572;52.378;13.404;2023-03-09T01:28:35;23.83;;;12.17;;
18879;SDS011;9572;52.378;13.404;2023-03-09T01:31:05;22.13;;;12.57;;
18879;SDS011;9572;52.378;13.404;2023-03-09T01:33:33;21.57;;;11.67;;
18879;SDS011;9572;52.378;13.404;2023-03-09T01:36:02;27.07;;;13.43;;
18879;SDS011;9572;52.378;13.404;2023-03-09T01:38:30;23.30;;;12.60;;
18879;SDS011;9572;52.378;13.404;2023-03-09T01:40:58;27.00;;;13.83;;
18879;SDS011;9572;52.378;13.404;2023-03-09T01:43:26;25.10;;;12.80;;
18879;SDS011;9572;52.378;13.404;2023-03-09T01:48:54;24.97;;;13.00;;
18879;SDS011;9572;52.378;13.404;2023-03-09T01:51:25;27.57;;;14.03;;
18879;SDS011;9572;52.378;13.404;2023-03-09T01:53:56;27.27;;;14.07;;
18879;SDS011;9572;52.378;13.404;2023-03-09T01:56:27;30.90;;;14.27;;
18879;SDS011;9572;52.378;13.404;2023-03-09T01:58:55;29.40;;;14.50;;
18879;SDS011;9572;52.378;13.404;2023-03-09T02:01:23;29.97;;;14.07;;
18879;SDS011;9572;52.378;13.404;2023-03-09T02:03:51;28.63;;;14.47;;
18879;SDS011;9572;52.378;13.404;2023-03-09T02:06:24;30.47;;;15.00;;
18879;SDS011;9572;52.378;13.404;2023-03-09T02:08:53;29.13;;;14.40;;
18879;SDS011;9572;52.378;13.404;2023-03-09T02:11:24;34.47;;;16.80;;
18879;SDS011;9572;52.378;13.404;2023-03-09T02:13:52;31.20;;;15.77;;
18879;SDS011;9572;52.378;13.404;2023-03-09T02:16:20;31.07;;;14.77;;
18879;SDS011;9572;52.378;13.404;2023-03-09T02:18:46;32.13;;;15.77;;
18879;SDS011;9572;52.378;13.404;2023-03-09T02:21:15;33.40;;;16.27;;
18879;SDS011;9572;52.378;13.404;2023-03-09T02:23:50;33.20;;;16.00;;
18879;SDS011;9572;52.378;13.404;2023-03-09T02:26:22;30.90;;;16.00;;
18879;SDS011;9572;52.378;13.404;2023-03-09T02:28:55;33.83;;;17.13;;
18879;SDS011;9572;52.378;13.404;2023-03-09T02:31:23;32.70;;;15.50;;
18879;SDS011;9572;52.378;13.404;2023-03-09T02:33:50;30.33;;;15.67;;
18879;SDS011;9572;52.378;13.404;2023-03-09T02:36:17;33.03;;;15.83;;
18879;SDS011;9572;52.378;13.404;2023-03-09T02:38:44;34.07;;;15.90;;
18879;SDS011;9572;52.378;13.404;2023-03-09T02:41:11;36.77;;;16.87;;
18879;SDS011;9572;52.378;13.404;2023-03-09T02:43:40;31.30;;;15.43;;
18879;SDS011;9572;52.378;13.404;2023-03-09T02:46:13;34.63;;;16.07;;
18879;SDS011;9572;52.378;13.404;2023-03-09T02:48:40;36.70;;;15.83;;
18879;SDS011;9572;52.378;13.404;2023-03-09T02:51:07;35.57;;;16.00;;
18879;SDS011;9572;52.378;13.404;2023-03-09T02:53:34;34.03;;;16.57;;
18879;SDS011;9572;52.378;13.404;2023-03-09T02:56:01;36.43;;;16.50;;
18879;SDS011;9572;52.378;13.404;2023-03-09T02:58:30;32.77;;;16.23;;
18879;SDS011;9572;52.378;13.404;2023-03-09T03:00:56;37.43;;;16.83;;
18879;SDS011;9572;52.378;13.404;2023-03-09T03:03:25;34.20;;;15.97;;
18879;SDS011;9572;52.378;13.404;2023-03-09T03:05:52;34.60;;;16.80;;
18879;SDS011;9572;52.378;13.404;2023-03-09T03:08:18;38.03;;;16.33;;
18879;SDS011;9572;52.378;13.404;2023-03-09T03:10:45;34.90;;;15.77;;
18879;SDS011;9572;52.378;13.404;2023-03-09T03:13:12;36.90;;;17.07;;
18879;SDS011;9572;52.378;13.404;2023-03-09T03:15:39;32.70;;;15.73;;
18879;SDS011;9572;52.378;13.404;2023-03-09T03:18:06;36.30;;;16.70;;
18879;SDS011;9572;52.378;13.404;2023-03-09T03:20:34;41.30;;;17.33;;
18879;SDS011;9572;52.378;13.404;2023-03-09T03:23:01;38.00;;;16.73;;
18879;SDS011;9572;52.378;13.404;2023-03-09T03:25:28;36.87;;;16.77;;
18879;SDS011;9572;52.378;13.404;2023-03-09T03:27:55;40.00;;;16.93;;
18879;SDS011;9572;52.378;13.404;2023-03-09T03:30:24;35.37;;;16.90;;
18879;SDS011;9572;52.378;13.404;2023-03-09T03:32:50;37.13;;;15.97;;
18879;SDS011;9572;52.378;13.404;2023-03-09T03:35:19;33.03;;;15.60;;
18879;SDS011;9572;52.378;13.404;2023-03-09T03:37:47;41.47;;;17.50;;
18879;SDS011;9572;52.378;13.404;2023-03-09T03:40:14;40.00;;;17.50;;
18879;SDS011;9572;52.378;13.404;2023-03-09T03:42:41;38.00;;;17.27;;
18879;SDS011;9572;52.378;13.404;2023-03-09T03:45:09;36.10;;;16.33;;
18879;SDS011;9572;52.378;13.404;2023-03-09T03:47:36;43.30;;;17.80;;
18879;SDS011;9572;52.378;13.404;2023-03-09T03:50:03;36.33;;;16.87;;
18879;SDS011;9572;52.378;13.404;2023-03-09T03:52:31;38.17;;;17.20;;
18879;SDS011;9572;52.378;13.404;2023-03-09T03:54:59;38.97;;;17.70;;
18879;SDS011;9572;52.378;13.404;2023-03-09T03:57:26;37.17;;;17.00;;
18879;SDS011;9572;52.378;13.404;2023-03-09T03:59:52;44.47;;;18.20;;
18879;SDS011;9572;52.378;13.404;2023-03-09T04:02:19;41.03;;;17.87;;
18879;SDS011;9572;52.378;13.404;2023-03-09T04:04:46;42.53;;;18.00;;
18879;SDS011;9572;52.378;13.404;2023-03-09T04:07:13;39.40;;;17.73;;
18879;SDS011;9572;52.378;13.404;2023-03-09T04:09:40;41.73;;;18.67;;
18879;SDS011;9572;52.378;13.404;2023-03-09T04:12:08;43.67;;;18.53;;
18879;SDS011;9572;52.378;13.404;2023-03-09T04:14:35;42.83;;;18.87;;
18879;SDS011;9572;52.378;13.404;2023-03-09T04:17:03;34.93;;;17.17;;
18879;SDS011;9572;52.378;13.404;2023-03-09T04:19:30;36.97;;;16.80;;
18879;SDS011;9572;52.378;13.404;2023-03-09T04:21:57;38.00;;;17.33;;
18879;SDS011;9572;52.378;13.404;2023-03-09T04:24:24;37.60;;;17.07;;
18879;SDS011;9572;52.378;13.404;2023-03-09T04:26:51;37.43;;;16.67;;
18879;SDS011;9572;52.378;13.404;2023-03-09T04:29:19;33.00;;;15.70;;
18879;SDS011;9572;52.378;13.404;2023-03-09T04:31:46;36.67;;;15.70;;
18879;SDS011;9572;52.378;13.404;2023-03-09T04:34:13;37.70;;;16.67;;
18879;SDS011;9572;52.378;13.404;2023-03-09T04:36:40;35.80;;;16.70;;
18879;SDS011;9572;52.378;13.404;2023-03-09T04:39:07;33.83;;;15.03;;
18879;SDS011;9572;52.378;13.404;2023-03-09T04:41:34;33.57;;;15.47;;
18879;SDS011;9572;52.378;13.404;2023-03-09T04:44:02;30.57;;;14.90;;
18879;SDS011;9572;52.378;13.404;2023-03-09T04:46:30;34.60;;;15.67;;
18879;SDS011;9572;52.378;13.404;2023-03-09T04:48:57;31.53;;;14.43;;
18879;SDS011;9572;52.378;13.404;2023-03-09T04:51:24;35.23;;;16.07;;
18879;SDS011;9572;52.378;13.404;2023-03-09T04:53:51;31.30;;;14.67;;
18879;SDS011;9572;52.378;13.404;2023-03-09T04:56:18;30.47;;;14.63;;
18879;SDS011;9572;52.378;13.404;2023-03-09T04:58:44;31.60;;;15.40;;
18879;SDS011;9572;52.378;13.404;2023-03-09T05:01:11;27.40;;;14.57;;
18879;SDS011;9572;52.378;13.404;2023-03-09T05:03:40;30.20;;;14.03;;
18879;SDS011;9572;52.378;13.404;2023-03-09T05:06:07;31.73;;;14.30;;
18879;SDS011;9572;52.378;13.404;2023-03-09T05:08:34;32.77;;;14.47;;
18879;SDS011;9572;52.378;13.404;2023-03-09T05:11:00;32.03;;;15.40;;
18879;SDS011;9572;52.378;13.404;2023-03-09T05:13:27;29.40;;;14.30;;
18879;SDS011;9572;52.378;13.404;2023-03-09T05:15:54;27.97;;;13.83;;
18879;SDS011;9572;52.378;13.404;2023-03-09T05:18:21;31.07;;;14.67;;
18879;SDS011;9572;52.378;13.404;2023-03-09T05:20:49;31.77;;;14.87;;
18879;SDS011;9572;52.378;13.404;2023-03-09T05:23:16;27.83;;;14.60;;
18879;SDS011;9572;52.378;13.404;2023-03-09T05:25:43;32.03;;;14.00;;
18879;SDS011;9572;52.378;13.404;2023-03-09T05:28:20;33.17;;;14.80;;
18879;SDS011;9572;52.378;13.404;2023-03-09T05:30:49;33.13;;;15.13;;
18879;SDS011;9572;52.378;13.404;2023-03-09T05:33:16;31.43;;;14.80;;
18879;SDS011;9572;52.378;13.404;2023-03-09T05:35:43;28.03;;;14.47;;
18879;SDS011;9572;52.378;13.404;2023-03-09T05:38:11;29.90;;;14.90;;
18879;SDS011;9572;52.378;13.404;2023-03-09T05:40:38;29.30;;;14.70;;
18879;SDS011;9572;52.378;13.404;2023-03-09T05:43:05;34.40;;;15.60;;
18879;SDS011;9572;52.378;13.404;2023-03-09T05:45:32;33.27;;;15.77;;
18879;SDS011;9572;52.378;13.404;2023-03-09T05:47:59;38.50;;;16.73;;
18879;SDS011;9572;52.378;13.404;2023-03-09T05:50:26;33.33;;;16.47;;
18879;SDS011;9572;52.378;13.404;2023-03-09T05:52:53;36.03;;;16.43;;
18879;SDS011;9572;52.378;13.404;2023-03-09T05:55:21;37.03;;;18.20;;
18879;SDS011;9572;52.378;13.404;2023-03-09T05:57:48;41.03;;;17.80;;
18879;SDS011;9572;52.378;13.404;2023-03-09T06:02:42;41.20;;;18.70;;
18879;SDS011;9572;52.378;13.404;2023-03-09T06:05:09;36.80;;;19.03;;
18879;SDS011;9572;52.378;13.404;2023-03-09T06:07:36;42.03;;;19.30;;
18879;SDS011;9572;52.378;13.404;2023-03-09T06:10:03;40.80;;;18.97;;
18879;SDS011;9572;52.378;13.404;2023-03-09T06:12:31;39.60;;;19.00;;
18879;SDS011;9572;52.378;13.404;2023-03-09T06:14:58;39.17;;;19.07;;
18879;SDS011;9572;52.378;13.404;2023-03-09T06:17:25;41.67;;;20.03;;
18879;SDS011;9572;52.378;13.404;2023-03-09T06:19:52;41.83;;;19.80;;
18879;SDS011;9572;52.378;13.404;2023-03-09T06:22:19;41.83;;;20.53;;
18879;SDS011;9572;52.378;13.404;2023-03-09T06:24:46;42.40;;;20.87;;
18879;SDS011;9572;52.378;13.404;2023-03-09T06:27:13;45.87;;;21.33;;
18879;SDS011;9572;52.378;13.404;2023-03-09T06:29:41;46.63;;;21.13;;
18879;SDS011;9572;52.378;13.404;2023-03-09T06:32:08;42.53;;;20.87;;
18879;SDS011;9572;52.378;13.404;2023-03-09T06:34:35;44.83;;;21.00;;
18879;SDS011;9572;52.378;13.404;2023-03-09T06:37:02;45.83;;;21.80;;
18879;SDS011;9572;52.378;13.404;2023-03-09T06:39:29;43.77;;;21.57;;
18879;SDS011;9572;52.378;13.404;2023-03-09T06:41:56;43.30;;;21.40;;
18879;SDS011;9572;52.378;13.404;2023-03-09T06:44:23;50.43;;;23.00;;
18879;SDS011;9572;52.378;13.404;2023-03-09T06:46:51;51.33;;;23.30;;
18879;SDS011;9572;52.378;13.404;2023-03-09T06:49:18;43.60;;;21.80;;
18879;SDS011;9572;52.378;13.404;2023-03-09T06:51:45;48.10;;;22.80;;
18879;SDS011;9572;52.378;13.404;2023-03-09T06:54:13;43.53;;;22.27;;
18879;SDS011;9572;52.378;13.404;2023-03-09T06:56:40;46.13;;;22.10;;
18879;SDS011;9572;52.378;13.404;2023-03-09T06:59:07;49.10;;;21.70;;
18879;SDS011;9572;52.378;13.404;2023-03-09T07:01:34;44.97;;;21.43;;
18879;SDS011;9572;52.378;13.404;2023-03-09T07:04:02;47.87;;;22.70;;
18879;SDS011;9572;52.378;13.404;2023-03-09T07:06:29;41.83;;;21.00;;
18879;SDS011;9572;52.378;13.404;2023-03-09T07:08:56;43.30;;;21.57;;
18879;SDS011;9572;52.378;13.404;2023-03-09T07:11:23;41.60;;;21.70;;
18879;SDS011;9572;52.378;13.404;2023-03-09T07:13:49;36.33;;;19.57;;
18879;SDS011;9572;52.378;13.404;2023-03-09T07:16:16;38.43;;;19.07;;
18879;SDS011;9572;52.378;13.404;2023-03-09T07:18:43;37.73;;;19.57;;
18879;SDS011;9572;52.378;13.404;2023-03-09T07:21:12;37.53;;;19.07;;
18879;SDS011;9572;52.378;13.404;2023-03-09T07:23:39;37.80;;;19.00;;
18879;SDS011;9572;52.378;13.404;2023-03-09T07:26:06;37.70;;;19.00;;
18879;SDS011;9572;52.378;13.404;2023-03-09T07:28:32;36.40;;;18.83;;
18879;SDS011;9572;52.378;13.404;2023-03-09T07:31:05;38.57;;;19.23;;
18879;SDS011;9572;52.378;13.404;2023-03-09T07:33:32;32.77;;;17.77;;
18879;SDS011;9572;52.378;13.404;2023-03-09T07:36:01;35.90;;;18.07;;
18879;SDS011;9572;52.378;13.404;2023-03-09T07:38:29;38.47;;;18.43;;
18879;SDS011;9572;52.378;13.404;2023-03-09T07:40:56;30.57;;;17.37;;
18879;SDS011;9572;52.378;13.404;2023-03-09T07:43:23;32.33;;;18.03;;
18879;SDS011;9572;52.378;13.404;2023-03-09T07:45:50;33.93;;;17.90;;
18879;SDS011;9572;52.378;13.404;2023-03-09T07:48:18;32.50;;;18.10;;
18879;SDS011;9572;52.378;13.404;2023-03-09T07:50:45;35.03;;;18.43;;
18879;SDS011;9572;52.378;13.404;2023-03-09T07:53:12;34.00;;;17.63;;
18879;SDS011;9572;52.378;13.404;2023-03-09T07:55:40;30.07;;;16.87;;
18879;SDS011;9572;52.378;13.404;2023-03-09T07:58:08;32.17;;;16.77;;
18879;SDS011;9572;52.378;13.404;2023-03-09T08:00:35;33.47;;;17.83;;
18879;SDS011;9572;52.378;13.404;2023-03-09T08:03:02;31.90;;;18.17;;
18879;SDS011;9572;52.378;13.404;2023-03-09T08:05:29;30.40;;;16.43;;
18879;SDS011;9572;52.378;13.404;2023-03-09T08:07:56;27.97;;;15.50;;
18879;SDS011;9572;52.378;13.404;2023-03-09T08:10:22;29.80;;;16.70;;
18879;SDS011;9572;52.378;13.404;2023-03-09T08:12:51;25.57;;;15.37;;
18879;SDS011;9572;52.378;13.404;2023-03-09T08:15:18;27.47;;;16.27;;
18879;SDS011;9572;52.378;13.404;2023-03-09T08:17:47;30.47;;;17.67;;
18879;SDS011;9572;52.378;13.404;2023-03-09T08:20:14;26.10;;;15.67;;
18879;SDS011;9572;52.378;13.404;2023-03-09T08:22:41;29.33;;;16.47;;
18879;SDS011;9572;52.378;13.404;2023-03-09T08:25:08;27.97;;;15.73;;
18879;SDS011;9572;52.378;13.404;2023-03-09T08:27:39;30.77;;;16.53;;
18879;SDS011;9572;52.378;13.404;2023-03-09T08:30:09;27.03;;;15.63;;
18879;SDS011;9572;52.378;13.404;2023-03-09T08:32:37;32.03;;;16.47;;
18879;SDS011;9572;52.378;13.404;2023-03-09T08:35:05;27.47;;;15.27;;
18879;SDS011;9572;52.378;13.404;2023-03-09T08:37:32;25.50;;;15.27;;
18879;SDS011;9572;52.378;13.404;2023-03-09T08:39:59;28.00;;;15.87;;
18879;SDS011;9572;52.378;13.404;2023-03-09T08:42:26;27.00;;;15.07;;
18879;SDS011;9572;52.378;13.404;2023-03-09T08:44:53;29.30;;;16.13;;
18879;SDS011;9572;52.378;13.404;2023-03-09T08:47:21;25.40;;;14.67;;
18879;SDS011;9572;52.378;13.404;2023-03-09T08:49:48;26.43;;;15.00;;
18879;SDS011;9572;52.378;13.404;2023-03-09T08:52:15;26.53;;;15.07;;
18879;SDS011;9572;52.378;13.404;2023-03-09T08:54:41;26.53;;;15.07;;
18879;SDS011;9572;52.378;13.404;2023-03-09T08:57:08;26.33;;;15.47;;
18879;SDS011;9572;52.378;13.404;2023-03-09T08:59:36;24.53;;;15.07;;
18879;SDS011;9572;52.378;13.404;2023-03-09T09:02:03;26.83;;;15.33;;
18879;SDS011;9572;52.378;13.404;2023-03-09T09:04:32;26.57;;;14.97;;
18879;SDS011;9572;52.378;13.404;2023-03-09T09:06:58;26.23;;;14.87;;
18879;SDS011;9572;52.378;13.404;2023-03-09T09:09:25;25.97;;;15.83;;
18879;SDS011;9572;52.378;13.404;2023-03-09T09:11:52;27.77;;;15.77;;
18879;SDS011;9572;52.378;13.404;2023-03-09T09:14:19;27.40;;;16.23;;
18879;SDS011;9572;52.378;13.404;2023-03-09T09:16:46;30.87;;;16.97;;
18879;SDS011;9572;52.378;13.404;2023-03-09T09:19:13;26.87;;;16.03;;
18879;SDS011;9572;52.378;13.404;2023-03-09T09:21:41;27.53;;;16.07;;
18879;SDS011;9572;52.378;13.404;2023-03-09T09:24:08;28.70;;;15.80;;
18879;SDS011;9572;52.378;13.404;2023-03-09T09:26:34;26.00;;;15.67;;
18879;SDS011;9572;52.378;13.404;2023-03-09T09:29:02;28.13;;;16.63;;
18879;SDS011;9572;52.378;13.404;2023-03-09T09:31:30;28.40;;;17.13;;
18879;SDS011;9572;52.378;13.404;2023-03-09T09:33:57;29.83;;;16.50;;
18879;SDS011;9572;52.378;13.404;2023-03-09T09:36:24;29.20;;;17.17;;
18879;SDS011;9572;52.378;13.404;2023-03-09T09:38:53;29.10;;;16.90;;
18879;SDS011;9572;52.378;13.404;2023-03-09T09:41:22;33.13;;;18.40;;
18879;SDS011;9572;52.378;13.404;2023-03-09T09:43:53;37.27;;;17.70;;
18879;SDS011;9572;52.378;13.404;2023-03-09T09:46:23;32.03;;;17.83;;
18879;SDS011;9572;52.378;13.404;2023-03-09T09:48:52;34.77;;;17.87;;
18879;SDS011;9572;52.378;13.404;2023-03-09T09:51:29;32.67;;;18.43;;
18879;SDS011;9572;52.378;13.404;2023-03-09T09:54:10;32.97;;;18.10;;
18879;SDS011;9572;52.378;13.404;2023-03-09T09:56:49;35.43;;;18.70;;
18879;SDS011;9572;52.378;13.404;2023-03-09T09:59:18;31.97;;;18.70;;
18879;SDS011;9572;52.378;13.404;2023-03-09T10:01:55;30.40;;;17.90;;
18879;SDS011;9572;52.378;13.404;2023-03-09T10:04:28;31.87;;;18.03;;
18879;SDS011;9572;52.378;13.404;2023-03-09T10:06:58;34.83;;;17.90;;
18879;SDS011;9572;52.378;13.404;2023-03-09T10:09:32;34.60;;;18.80;;
18879;SDS011;9572;52.378;13.404;2023-03-09T10:12:05;35.87;;;17.40;;
18879;SDS011;9572;52.378;13.404;2023-03-09T10:14:37;29.63;;;16.57;;
18879;SDS011;9572;52.378;13.404;2023-03-09T10:17:09;31.53;;;16.80;;
18879;SDS011;9572;52.378;13.404;2023-03-09T10:19:40;32.70;;;18.10;;
18879;SDS011;9572;52.378;13.404;2023-03-09T10:22:13;29.80;;;17.23;;
18879;SDS011;9572;52.378;13.404;2023-03-09T10:24:46;28.80;;;17.20;;
18879;SDS011;9572;52.378;13.404;2023-03-09T10:27:17;29.63;;;16.80;;
18879;SDS011;9572;52.378;13.404;2023-03-09T10:29:50;31.23;;;17.13;;
18879;SDS011;9572;52.378;13.404;2023-03-09T10:32:24;32.90;;;17.00;;
18879;SDS011;9572;52.378;13.404;2023-03-09T10:35:04;31.70;;;17.40;;
18879;SDS011;9572;52.378;13.404;2023-03-09T10:37:44;29.87;;;17.53;;
18879;SDS011;9572;52.378;13.404;2023-03-09T10:40:16;31.07;;;17.70;;
18879;SDS011;9572;52.378;13.404;2023-03-09T10:42:45;32.40;;;18.07;;
18879;SDS011;9572;52.378;13.404;2023-03-09T10:45:16;32.40;;;17.30;;
18879;SDS011;9572;52.378;13.404;2023-03-09T10:47:52;30.07;;;17.33;;
18879;SDS011;9572;52.378;13.404;2023-03-09T10:50:25;31.43;;;18.03;;
18879;SDS011;9572;52.378;13.404;2023-03-09T10:52:54;33.30;;;18.03;;
18879;SDS011;9572;52.378;13.404;2023-03-09T10:55:44;31.17;;;16.50;;
18879;SDS011;9572;52.378;13.404;2023-03-09T10:58:14;30.10;;;17.43;;
18879;SDS011;9572;52.378;13.404;2023-03-09T11:00:50;29.40;;;16.43;;
18879;SDS011;9572;52.378;13.404;2023-03-09T11:03:20;29.60;;;17.43;;
18879;SDS011;9572;52.378;13.404;2023-03-09T11:05:48;32.10;;;17.40;;
18879;SDS011;9572;52.378;13.404;2023-03-09T11:08:22;31.53;;;17.20;;
18879;SDS011;9572;52.378;13.404;2023-03-09T11:11:02;45.90;;;22.93;;
18879;SDS011;9572;52.378;13.404;2023-03-09T11:13:31;28.50;;;17.03;;
18879;SDS011;9572;52.378;13.404;2023-03-09T11:16:06;37.47;;;18.20;;
18879;SDS011;9572;52.378;13.404;2023-03-09T11:18:40;30.87;;;18.10;;
18879;SDS011;9572;52.378;13.404;2023-03-09T11:21:07;30.33;;;17.10;;
18879;SDS011;9572;52.378;13.404;2023-03-09T11:23:36;30.30;;;17.23;;
18879;SDS011;9572;52.378;13.404;2023-03-09T11:26:17;29.07;;;16.77;;
18879;SDS011;9572;52.378;13.404;2023-03-09T11:28:53;28.23;;;16.60;;
18879;SDS011;9572;52.378;13.404;2023-03-09T11:31:24;30.33;;;16.93;;
18879;SDS011;9572;52.378;13.404;2023-03-09T11:33:58;30.30;;;17.33;;
18879;SDS011;9572;52.378;13.404;2023-03-09T11:36:28;31.03;;;17.73;;
18879;SDS011;9572;52.378;13.404;2023-03-09T11:39:00;31.53;;;16.77;;
18879;SDS011;9572;52.378;13.404;2023-03-09T11:41:31;31.13;;;16.20;;
18879;SDS011;9572;52.378;13.404;2023-03-09T11:44:01;29.47;;;16.97;;
18879;SDS011;9572;52.378;13.404;2023-03-09T11:46:31;30.80;;;17.87;;
18879;SDS011;9572;52.378;13.404;2023-03-09T11:49:04;31.30;;;17.23;;
18879;SDS011;9572;52.378;13.404;2023-03-09T11:51:35;30.40;;;16.63;;
18879;SDS011;9572;52.378;13.404;2023-03-09T11:54:10;29.17;;;16.60;;
18879;SDS011;9572;52.378;13.404;2023-03-09T11:56:47;32.43;;;16.67;;
18879;SDS011;9572;52.378;13.404;2023-03-09T11:59:16;29.23;;;16.07;;
18879;SDS011;9572;52.378;13.404;2023-03-09T12:01:47;30.97;;;17.50;;
18879;SDS011;9572;52.378;13.404;2023-03-09T12:04:18;32.77;;;17.80;;
18879;SDS011;9572;52.378;13.404;2023-03-09T12:06:49;33.30;;;18.10;;
18879;SDS011;9572;52.378;13.404;2023-03-09T12:09:20;37.13;;;18.77;;
18879;SDS011;9572;52.378;13.404;2023-03-09T12:11:56;31.40;;;16.43;;
18879;SDS011;9572;52.378;13.404;2023-03-09T12:14:26;31.07;;;17.33;;
18879;SDS011;9572;52.378;13.404;2023-03-09T12:16:58;32.90;;;18.97;;
18879;SDS011;9572;52.378;13.404;2023-03-09T12:19:30;32.83;;;18.33;;
18879;SDS011;9572;52.378;13.404;2023-03-09T12:22:00;32.47;;;18.20;;
18879;SDS011;9572;52.378;13.404;2023-03-09T12:24:31;32.87;;;18.40;;
18879;SDS011;9572;52.378;13.404;2023-03-09T12:27:03;28.30;;;16.97;;
18879;SDS011;9572;52.378;13.404;2023-03-09T12:29:38;32.33;;;17.53;;
18879;SDS011;9572;52.378;13.404;2023-03-09T12:35:01;31.23;;;18.00;;
18879;SDS011;9572;52.378;13.404;2023-03-09T12:37:51;31.53;;;16.93;;
18879;SDS011;9572;52.378;13.404;2023-03-09T12:40:25;33.00;;;18.13;;
18879;SDS011;9572;52.378;13.404;2023-03-09T12:49:20;30.43;;;17.10;;
18879;SDS011;9572;52.378;13.404;2023-03-09T12:51:57;33.40;;;18.97;;
18879;SDS011;9572;52.378;13.404;2023-03-09T12:54:37;30.70;;;17.00;;
18879;SDS011;9572;52.378;13.404;2023-03-09T12:59:53;34.03;;;18.10;;
18879;SDS011;9572;52.378;13.404;2023-03-09T13:02:23;36.37;;;18.33;;
18879;SDS011;9572;52.378;13.404;2023-03-09T13:10:43;35.07;;;19.17;;
18879;SDS011;9572;52.378;13.404;2023-03-09T13:22:16;38.77;;;19.17;;
18879;SDS011;9572;52.378;13.404;2023-03-09T13:28:00;37.50;;;19.23;;
18879;SDS011;9572;52.378;13.404;2023-03-09T13:30:29;35.87;;;18.63;;
18879;SDS011;9572;52.378;13.404;2023-03-09T13:33:01;34.30;;;19.37;;
18879;SDS011;9572;52.378;13.404;2023-03-09T13:35:34;34.10;;;19.23;;
18879;SDS011;9572;52.378;13.404;2023-03-09T13:38:04;34.67;;;18.37;;
18879;SDS011;9572;52.378;13.404;2023-03-09T13:40:38;34.93;;;19.03;;
18879;SDS011;9572;52.378;13.404;2023-03-09T13:43:14;34.10;;;19.77;;
18879;SDS011;9572;52.378;13.404;2023-03-09T13:45:53;33.47;;;19.33;;
18879;SDS011;9572;52.378;13.404;2023-03-09T13:48:28;35.97;;;19.37;;
18879;SDS011;9572;52.378;13.404;2023-03-09T13:50:57;35.63;;;20.10;;
18879;SDS011;9572;52.378;13.404;2023-03-09T13:53:25;34.13;;;18.73;;
18879;SDS011;9572;52.378;13.404;2023-03-09T13:55:54;35.17;;;19.63;;
18879;SDS011;9572;52.378;13.404;2023-03-09T13:58:22;35.60;;;19.43;;
18879;SDS011;9572;52.378;13.404;2023-03-09T14:00:50;39.03;;;20.37;;
18879;SDS011;9572;52.378;13.404;2023-03-09T14:03:19;36.03;;;19.67;;
18879;SDS011;9572;52.378;13.404;2023-03-09T14:05:54;40.23;;;19.97;;
18879;SDS011;9572;52.378;13.404;2023-03-09T14:08:31;37.33;;;19.27;;
18879;SDS011;9572;52.378;13.404;2023-03-09T14:11:04;36.47;;;19.60;;
18879;SDS011;9572;52.378;13.404;2023-03-09T14:13:32;39.67;;;20.83;;
18879;SDS011;9572;52.378;13.404;2023-03-09T14:16:02;37.60;;;19.43;;
18879;SDS011;9572;52.378;13.404;2023-03-09T14:18:34;38.47;;;20.23;;
18879;SDS011;9572;52.378;13.404;2023-03-09T14:21:17;39.50;;;20.07;;
18879;SDS011;9572;52.378;13.404;2023-03-09T14:23:46;34.90;;;19.83;;
18879;SDS011;9572;52.378;13.404;2023-03-09T14:26:13;38.17;;;20.73;;
18879;SDS011;9572;52.378;13.404;2023-03-09T14:29:03;37.13;;;20.60;;
18879;SDS011;9572;52.378;13.404;2023-03-09T14:31:32;38.00;;;19.10;;
18879;SDS011;9572;52.378;13.404;2023-03-09T14:34:01;36.60;;;19.77;;
18879;SDS011;9572;52.378;13.404;2023-03-09T14:36:31;43.30;;;21.17;;
18879;SDS011;9572;52.378;13.404;2023-03-09T14:39:03;38.07;;;20.80;;
18879;SDS011;9572;52.378;13.404;2023-03-09T14:41:35;39.73;;;20.43;;
18879;SDS011;9572;52.378;13.404;2023-03-09T14:44:03;37.53;;;20.27;;
18879;SDS011;9572;52.378;13.404;2023-03-09T14:46:30;40.20;;;20.40;;
18879;SDS011;9572;52.378;13.404;2023-03-09T14:48:57;39.00;;;21.20;;
18879;SDS011;9572;52.378;13.404;2023-03-09T14:51:27;34.87;;;19.57;;
18879;SDS011;9572;52.378;13.404;2023-03-09T14:53:58;38.93;;;21.10;;
18879;SDS011;9572;52.378;13.404;2023-03-09T14:56:27;40.87;;;20.10;;
18879;SDS011;9572;52.378;13.404;2023-03-09T14:58:56;34.50;;;20.00;;
18879;SDS011;9572;52.378;13.404;2023-03-09T15:01:24;37.67;;;20.33;;
18879;SDS011;9572;52.378;13.404;2023-03-09T15:03:53;39.17;;;20.57;;
18879;SDS011;9572;52.378;13.404;2023-03-09T15:06:23;39.93;;;20.03;;